sensor_id;sensor_type;location;lat;lon;timestamp;P1;durP1;ratioP1;P2;durP2;ratioP2
12852;SDS011;6495;51.808;7.478;2023-04-25T00:02:46;8.67;;;2.60;;
12852;SDS011;6495;51.808;7.478;2023-04-25T00:05:37;6.73;;;2.90;;
12852;SDS011;6495;51.808;7.478;2023-04-25T00:08:26;3.80;;;2.07;;
12852;SDS011;6495;51.808;7.478;2023-04-25T00:11:14;4.20;;;2.03;;
12852;SDS011;6495;51.808;7.478;2023-04-25T00:14:03;8.07;;;2.83;;
12852;SDS011;6495;51.808;7.478;2023-04-25T00:16:53;5.30;;;2.23;;
12852;SDS011;6495;51.808;7.478;2023-04-25T00:19:42;6.63;;;2.47;;
12852;SDS011;6495;51.808;7.478;2023-04-25T00:22:34;6.47;;;2.27;;
12852;SDS011;6495;51.808;7.478;2023-04-25T00:25:23;6.17;;;2.70;;
12852;SDS011;6495;51.808;7.478;2023-04-25T00:28:12;5.50;;;2.57;;
12852;SDS011;6495;51.808;7.478;2023-04-25T00:31:02;5.40;;;2.53;;
12852;SDS011;6495;51.808;7.478;2023-04-25T00:33:51;6.87;;;2.70;;
12852;SDS011;6495;51.808;7.478;2023-04-25T00:36:39;8.40;;;2.73;;
12852;SDS011;6495;51.808;7.478;2023-04-25T00:39:30;3.60;;;2.30;;
12852;SDS011;6495;51.808;7.478;2023-04-25T00:42:18;4.70;;;2.60;;
12852;SDS011;6495;51.808;7.478;2023-04-25T00:45:07;11.90;;;2.63;;
12852;SDS011;6495;51.808;7.478;2023-04-25T00:48:01;8.83;;;2.53;;
12852;SDS011;6495;51.808;7.478;2023-04-25T00:50:53;5.87;;;2.60;;
12852;SDS011;6495;51.808;7.478;2023-04-25T00:53:44;7.37;;;2.23;;
12852;SDS011;6495;51.808;7.478;2023-04-25T00:56:36;5.50;;;2.37;;
12852;SDS011;6495;51.808;7.478;2023-04-25T00:59:25;5.97;;;2.57;;
12852;SDS011;6495;51.808;7.478;2023-04-25T01:02:13;5.17;;;2.47;;
12852;SDS011;6495;51.808;7.478;2023-04-25T01:05:03;5.37;;;2.80;;
12852;SDS011;6495;51.808;7.478;2023-04-25T01:07:52;5.40;;;2.30;;
12852;SDS011;6495;51.808;7.478;2023-04-25T01:10:41;5.97;;;2.73;;
12852;SDS011;6495;51.808;7.478;2023-04-25T01:13:31;5.07;;;2.40;;
12852;SDS011;6495;51.808;7.478;2023-04-25T01:16:20;7.53;;;2.80;;
12852;SDS011;6495;51.808;7.478;2023-04-25T01:19:10;5.20;;;2.23;;
12852;SDS011;6495;51.808;7.478;2023-04-25T01:22:01;5.17;;;2.73;;
12852;SDS011;6495;51.808;7.478;2023-04-25T01:24:50;4.43;;;2.37;;
12852;SDS011;6495;51.808;7.478;2023-04-25T01:27:39;4.30;;;2.37;;
12852;SDS011;6495;51.808;7.478;2023-04-25T01:30:29;8.37;;;2.60;;
12852;SDS011;6495;51.808;7.478;2023-04-25T01:33:18;4.80;;;2.57;;
12852;SDS011;6495;51.808;7.478;2023-04-25T01:36:09;4.80;;;3.00;;
12852;SDS011;6495;51.808;7.478;2023-04-25T01:38:59;7.80;;;2.80;;
12852;SDS011;6495;51.808;7.478;2023-04-25T01:41:49;7.00;;;2.67;;
12852;SDS011;6495;51.808;7.478;2023-04-25T01:44:38;5.50;;;2.70;;
12852;SDS011;6495;51.808;7.478;2023-04-25T01:47:27;3.97;;;2.43;;
12852;SDS011;6495;51.808;7.478;2023-04-25T01:50:18;4.97;;;2.27;;
12852;SDS011;6495;51.808;7.478;2023-04-25T01:53:08;3.63;;;2.13;;
12852;SDS011;6495;51.808;7.478;2023-04-25T01:56:03;4.50;;;2.40;;
12852;SDS011;6495;51.808;7.478;2023-04-25T01:58:54;4.30;;;2.50;;
12852;SDS011;6495;51.808;7.478;2023-04-25T02:02:09;4.47;;;2.23;;
12852;SDS011;6495;51.808;7.478;2023-04-25T02:04:58;4.63;;;1.93;;
12852;SDS011;6495;51.808;7.478;2023-04-25T02:07:47;5.30;;;3.03;;
12852;SDS011;6495;51.808;7.478;2023-04-25T02:10:36;3.30;;;2.00;;
12852;SDS011;6495;51.808;7.478;2023-04-25T02:13:39;7.40;;;2.80;;
12852;SDS011;6495;51.808;7.478;2023-04-25T02:16:46;4.10;;;2.07;;
12852;SDS011;6495;51.808;7.478;2023-04-25T02:19:36;5.27;;;2.23;;
12852;SDS011;6495;51.808;7.478;2023-04-25T02:22:26;4.33;;;1.90;;
12852;SDS011;6495;51.808;7.478;2023-04-25T02:25:17;4.20;;;2.00;;
12852;SDS011;6495;51.808;7.478;2023-04-25T02:28:06;9.53;;;2.20;;
12852;SDS011;6495;51.808;7.478;2023-04-25T02:30:57;3.37;;;1.90;;
12852;SDS011;6495;51.808;7.478;2023-04-25T02:33:47;6.07;;;2.00;;
12852;SDS011;6495;51.808;7.478;2023-04-25T02:36:36;5.47;;;2.03;;
12852;SDS011;6495;51.808;7.478;2023-04-25T02:39:25;7.43;;;1.93;;
12852;SDS011;6495;51.808;7.478;2023-04-25T02:42:15;7.67;;;1.97;;
12852;SDS011;6495;51.808;7.478;2023-04-25T02:45:04;4.40;;;1.77;;
12852;SDS011;6495;51.808;7.478;2023-04-25T02:47:55;9.17;;;2.33;;
12852;SDS011;6495;51.808;7.478;2023-04-25T02:50:44;3.93;;;1.87;;
12852;SDS011;6495;51.808;7.478;2023-04-25T02:53:32;8.57;;;2.07;;
12852;SDS011;6495;51.808;7.478;2023-04-25T02:56:21;9.60;;;2.40;;
12852;SDS011;6495;51.808;7.478;2023-04-25T02:59:10;7.50;;;2.40;;
12852;SDS011;6495;51.808;7.478;2023-04-25T03:01:58;8.63;;;2.03;;
12852;SDS011;6495;51.808;7.478;2023-04-25T03:04:49;9.07;;;2.20;;
12852;SDS011;6495;51.808;7.478;2023-04-25T03:07:38;8.30;;;2.13;;
12852;SDS011;6495;51.808;7.478;2023-04-25T03:10:29;6.47;;;1.90;;
12852;SDS011;6495;51.808;7.478;2023-04-25T03:13:22;9.43;;;1.70;;
12852;SDS011;6495;51.808;7.478;2023-04-25T03:16:10;6.23;;;2.67;;
12852;SDS011;6495;51.808;7.478;2023-04-25T03:18:59;8.90;;;2.33;;
12852;SDS011;6495;51.808;7.478;2023-04-25T03:21:49;6.93;;;2.17;;
12852;SDS011;6495;51.808;7.478;2023-04-25T03:24:38;11.40;;;2.47;;
12852;SDS011;6495;51.808;7.478;2023-04-25T03:27:27;7.50;;;2.47;;
12852;SDS011;6495;51.808;7.478;2023-04-25T03:30:16;7.17;;;2.43;;
12852;SDS011;6495;51.808;7.478;2023-04-25T03:33:05;5.83;;;1.80;;
12852;SDS011;6495;51.808;7.478;2023-04-25T03:35:53;3.53;;;1.90;;
12852;SDS011;6495;51.808;7.478;2023-04-25T03:38:43;5.80;;;2.03;;
12852;SDS011;6495;51.808;7.478;2023-04-25T03:41:34;8.83;;;2.13;;
12852;SDS011;6495;51.808;7.478;2023-04-25T03:44:28;9.37;;;2.20;;
12852;SDS011;6495;51.808;7.478;2023-04-25T03:47:18;10.70;;;2.73;;
12852;SDS011;6495;51.808;7.478;2023-04-25T03:50:08;5.77;;;2.27;;
12852;SDS011;6495;51.808;7.478;2023-04-25T03:52:58;4.60;;;2.27;;
12852;SDS011;6495;51.808;7.478;2023-04-25T03:55:52;6.33;;;2.03;;
12852;SDS011;6495;51.808;7.478;2023-04-25T03:58:41;11.30;;;2.17;;
12852;SDS011;6495;51.808;7.478;2023-04-25T04:01:30;7.23;;;2.63;;
12852;SDS011;6495;51.808;7.478;2023-04-25T04:04:18;5.67;;;1.87;;
12852;SDS011;6495;51.808;7.478;2023-04-25T04:07:08;13.80;;;2.30;;
12852;SDS011;6495;51.808;7.478;2023-04-25T04:10:00;6.93;;;2.07;;
12852;SDS011;6495;51.808;7.478;2023-04-25T04:12:56;6.03;;;2.20;;
12852;SDS011;6495;51.808;7.478;2023-04-25T04:15:45;7.70;;;2.27;;
12852;SDS011;6495;51.808;7.478;2023-04-25T04:18:34;4.03;;;2.13;;
12852;SDS011;6495;51.808;7.478;2023-04-25T04:21:23;7.47;;;2.77;;
12852;SDS011;6495;51.808;7.478;2023-04-25T04:24:14;8.80;;;2.40;;
12852;SDS011;6495;51.808;7.478;2023-04-25T04:27:11;5.13;;;2.00;;
12852;SDS011;6495;51.808;7.478;2023-04-25T04:30:08;5.60;;;2.03;;
12852;SDS011;6495;51.808;7.478;2023-04-25T04:33:07;6.53;;;2.23;;
12852;SDS011;6495;51.808;7.478;2023-04-25T04:35:56;10.60;;;2.27;;
12852;SDS011;6495;51.808;7.478;2023-04-25T04:38:46;6.17;;;2.40;;
12852;SDS011;6495;51.808;7.478;2023-04-25T04:41:50;8.33;;;2.10;;
12852;SDS011;6495;51.808;7.478;2023-04-25T04:44:59;5.07;;;1.80;;
12852;SDS011;6495;51.808;7.478;2023-04-25T04:48:18;7.63;;;2.20;;
12852;SDS011;6495;51.808;7.478;2023-04-25T04:51:26;7.97;;;2.03;;
12852;SDS011;6495;51.808;7.478;2023-04-25T04:54:44;3.97;;;1.90;;
12852;SDS011;6495;51.808;7.478;2023-04-25T04:57:37;7.57;;;2.00;;
12852;SDS011;6495;51.808;7.478;2023-04-25T05:00:39;5.17;;;1.87;;
12852;SDS011;6495;51.808;7.478;2023-04-25T05:03:48;3.43;;;1.53;;
12852;SDS011;6495;51.808;7.478;2023-04-25T05:06:54;4.40;;;2.30;;
12852;SDS011;6495;51.808;7.478;2023-04-25T05:10:08;7.13;;;2.20;;
12852;SDS011;6495;51.808;7.478;2023-04-25T05:13:22;7.60;;;2.40;;
12852;SDS011;6495;51.808;7.478;2023-04-25T05:16:29;5.70;;;2.30;;
12852;SDS011;6495;51.808;7.478;2023-04-25T05:19:44;4.83;;;2.17;;
12852;SDS011;6495;51.808;7.478;2023-04-25T05:23:02;7.93;;;2.40;;
12852;SDS011;6495;51.808;7.478;2023-04-25T05:26:11;7.80;;;2.03;;
12852;SDS011;6495;51.808;7.478;2023-04-25T05:29:10;8.70;;;2.27;;
12852;SDS011;6495;51.808;7.478;2023-04-25T05:32:28;3.63;;;2.10;;
12852;SDS011;6495;51.808;7.478;2023-04-25T05:35:19;8.40;;;2.10;;
12852;SDS011;6495;51.808;7.478;2023-04-25T05:38:09;6.33;;;2.20;;
12852;SDS011;6495;51.808;7.478;2023-04-25T05:41:20;10.07;;;2.30;;
12852;SDS011;6495;51.808;7.478;2023-04-25T05:44:20;13.23;;;2.33;;
12852;SDS011;6495;51.808;7.478;2023-04-25T05:47:22;7.87;;;2.43;;
12852;SDS011;6495;51.808;7.478;2023-04-25T05:50:41;6.43;;;2.10;;
12852;SDS011;6495;51.808;7.478;2023-04-25T05:53:57;10.00;;;2.50;;
12852;SDS011;6495;51.808;7.478;2023-04-25T05:56:48;2.63;;;1.77;;
12852;SDS011;6495;51.808;7.478;2023-04-25T05:59:37;5.23;;;2.10;;
12852;SDS011;6495;51.808;7.478;2023-04-25T06:02:25;3.77;;;1.93;;
12852;SDS011;6495;51.808;7.478;2023-04-25T06:05:15;5.70;;;2.10;;
12852;SDS011;6495;51.808;7.478;2023-04-25T06:08:07;7.00;;;2.20;;
12852;SDS011;6495;51.808;7.478;2023-04-25T06:10:57;4.63;;;2.37;;
12852;SDS011;6495;51.808;7.478;2023-04-25T06:13:46;5.67;;;2.00;;
12852;SDS011;6495;51.808;7.478;2023-04-25T06:16:36;6.63;;;2.30;;
12852;SDS011;6495;51.808;7.478;2023-04-25T06:19:24;6.53;;;2.40;;
12852;SDS011;6495;51.808;7.478;2023-04-25T06:22:13;8.13;;;1.97;;
12852;SDS011;6495;51.808;7.478;2023-04-25T06:25:03;4.47;;;2.20;;
12852;SDS011;6495;51.808;7.478;2023-04-25T06:27:54;4.50;;;1.67;;
12852;SDS011;6495;51.808;7.478;2023-04-25T06:30:42;2.97;;;1.97;;
12852;SDS011;6495;51.808;7.478;2023-04-25T06:33:36;5.43;;;1.70;;
12852;SDS011;6495;51.808;7.478;2023-04-25T06:36:24;7.43;;;1.97;;
12852;SDS011;6495;51.808;7.478;2023-04-25T06:39:20;6.93;;;1.87;;
12852;SDS011;6495;51.808;7.478;2023-04-25T06:42:11;3.87;;;2.00;;
12852;SDS011;6495;51.808;7.478;2023-04-25T06:45:12;9.10;;;1.97;;
12852;SDS011;6495;51.808;7.478;2023-04-25T06:48:00;6.17;;;2.27;;
12852;SDS011;6495;51.808;7.478;2023-04-25T06:50:49;3.23;;;2.00;;
12852;SDS011;6495;51.808;7.478;2023-04-25T06:53:38;3.67;;;1.60;;
12852;SDS011;6495;51.808;7.478;2023-04-25T06:56:31;5.37;;;1.90;;
12852;SDS011;6495;51.808;7.478;2023-04-25T06:59:29;6.10;;;1.67;;
12852;SDS011;6495;51.808;7.478;2023-04-25T07:02:19;6.90;;;2.17;;
12852;SDS011;6495;51.808;7.478;2023-04-25T07:05:10;5.00;;;2.00;;
12852;SDS011;6495;51.808;7.478;2023-04-25T07:07:59;7.70;;;1.87;;
12852;SDS011;6495;51.808;7.478;2023-04-25T07:10:48;5.80;;;1.87;;
12852;SDS011;6495;51.808;7.478;2023-04-25T07:13:37;5.27;;;1.90;;
12852;SDS011;6495;51.808;7.478;2023-04-25T07:16:27;7.40;;;1.50;;
12852;SDS011;6495;51.808;7.478;2023-04-25T07:19:17;2.67;;;1.40;;
12852;SDS011;6495;51.808;7.478;2023-04-25T07:22:06;9.93;;;2.13;;
12852;SDS011;6495;51.808;7.478;2023-04-25T07:24:57;9.07;;;1.90;;
12852;SDS011;6495;51.808;7.478;2023-04-25T07:27:48;6.03;;;1.90;;
12852;SDS011;6495;51.808;7.478;2023-04-25T07:30:38;2.05;;;1.40;;
12852;SDS011;6495;51.808;7.478;2023-04-25T07:33:28;10.10;;;2.35;;
12852;SDS011;6495;51.808;7.478;2023-04-25T07:36:17;5.53;;;2.10;;
12852;SDS011;6495;51.808;7.478;2023-04-25T07:39:05;8.70;;;2.23;;
12852;SDS011;6495;51.808;7.478;2023-04-25T07:41:55;6.13;;;2.23;;
12852;SDS011;6495;51.808;7.478;2023-04-25T07:44:48;3.53;;;1.50;;
12852;SDS011;6495;51.808;7.478;2023-04-25T07:47:38;5.78;;;1.77;;
12852;SDS011;6495;51.808;7.478;2023-04-25T07:50:28;10.00;;;1.23;;
12852;SDS011;6495;51.808;7.478;2023-04-25T07:53:17;3.00;;;1.50;;
12852;SDS011;6495;51.808;7.478;2023-04-25T07:56:12;4.57;;;1.65;;
12852;SDS011;6495;51.808;7.478;2023-04-25T07:59:03;10.82;;;1.73;;
12852;SDS011;6495;51.808;7.478;2023-04-25T08:01:52;5.70;;;1.85;;
12852;SDS011;6495;51.808;7.478;2023-04-25T08:04:42;5.28;;;1.70;;
12852;SDS011;6495;51.808;7.478;2023-04-25T08:07:34;7.07;;;1.90;;
12852;SDS011;6495;51.808;7.478;2023-04-25T08:10:25;5.63;;;2.10;;
12852;SDS011;6495;51.808;7.478;2023-04-25T08:13:13;5.68;;;1.65;;
12852;SDS011;6495;51.808;7.478;2023-04-25T08:16:04;4.00;;;1.30;;
12852;SDS011;6495;51.808;7.478;2023-04-25T08:18:53;2.35;;;1.27;;
12852;SDS011;6495;51.808;7.478;2023-04-25T08:21:42;5.90;;;1.92;;
12852;SDS011;6495;51.808;7.478;2023-04-25T08:24:36;6.63;;;1.77;;
12852;SDS011;6495;51.808;7.478;2023-04-25T08:27:26;1.92;;;1.40;;
12852;SDS011;6495;51.808;7.478;2023-04-25T08:30:16;4.50;;;1.58;;
12852;SDS011;6495;51.808;7.478;2023-04-25T08:33:05;5.68;;;1.50;;
12852;SDS011;6495;51.808;7.478;2023-04-25T08:36:13;2.45;;;1.35;;
12852;SDS011;6495;51.808;7.478;2023-04-25T08:39:21;6.00;;;1.75;;
12852;SDS011;6495;51.808;7.478;2023-04-25T08:42:37;3.58;;;1.40;;
12852;SDS011;6495;51.808;7.478;2023-04-25T08:45:28;5.40;;;1.40;;
12852;SDS011;6495;51.808;7.478;2023-04-25T08:48:21;5.53;;;1.50;;
12852;SDS011;6495;51.808;7.478;2023-04-25T08:51:20;4.25;;;1.48;;
12852;SDS011;6495;51.808;7.478;2023-04-25T08:54:12;5.70;;;1.23;;
12852;SDS011;6495;51.808;7.478;2023-04-25T08:57:20;5.22;;;1.35;;
12852;SDS011;6495;51.808;7.478;2023-04-25T09:00:12;3.03;;;0.98;;
12852;SDS011;6495;51.808;7.478;2023-04-25T09:03:03;9.18;;;1.50;;
12852;SDS011;6495;51.808;7.478;2023-04-25T09:05:53;5.10;;;1.30;;
12852;SDS011;6495;51.808;7.478;2023-04-25T09:08:43;4.43;;;1.40;;
12852;SDS011;6495;51.808;7.478;2023-04-25T09:11:31;2.92;;;1.58;;
12852;SDS011;6495;51.808;7.478;2023-04-25T09:14:23;3.42;;;1.50;;
12852;SDS011;6495;51.808;7.478;2023-04-25T09:17:24;2.63;;;1.40;;
12852;SDS011;6495;51.808;7.478;2023-04-25T09:20:15;5.65;;;1.50;;
12852;SDS011;6495;51.808;7.478;2023-04-25T09:23:05;3.13;;;1.58;;
12852;SDS011;6495;51.808;7.478;2023-04-25T09:25:56;8.80;;;1.45;;
12852;SDS011;6495;51.808;7.478;2023-04-25T09:28:45;3.78;;;1.77;;
12852;SDS011;6495;51.808;7.478;2023-04-25T09:31:38;2.80;;;1.17;;
12852;SDS011;6495;51.808;7.478;2023-04-25T09:34:34;3.78;;;1.42;;
12852;SDS011;6495;51.808;7.478;2023-04-25T09:37:31;4.28;;;1.48;;
12852;SDS011;6495;51.808;7.478;2023-04-25T09:40:39;6.25;;;1.38;;
12852;SDS011;6495;51.808;7.478;2023-04-25T09:43:39;4.30;;;1.30;;
12852;SDS011;6495;51.808;7.478;2023-04-25T09:46:33;3.72;;;1.35;;
12852;SDS011;6495;51.808;7.478;2023-04-25T09:49:33;3.13;;;1.30;;
12852;SDS011;6495;51.808;7.478;2023-04-25T09:52:25;3.35;;;1.40;;
12852;SDS011;6495;51.808;7.478;2023-04-25T09:55:29;2.25;;;1.33;;
12852;SDS011;6495;51.808;7.478;2023-04-25T09:58:19;5.07;;;1.60;;
12852;SDS011;6495;51.808;7.478;2023-04-25T10:01:09;2.55;;;1.23;;
12852;SDS011;6495;51.808;7.478;2023-04-25T10:04:16;5.00;;;1.50;;
12852;SDS011;6495;51.808;7.478;2023-04-25T10:07:29;1.55;;;1.15;;
12852;SDS011;6495;51.808;7.478;2023-04-25T10:10:20;5.70;;;1.15;;
12852;SDS011;6495;51.808;7.478;2023-04-25T10:13:12;4.00;;;1.20;;
12852;SDS011;6495;51.808;7.478;2023-04-25T10:16:03;3.40;;;1.20;;
12852;SDS011;6495;51.808;7.478;2023-04-25T10:18:52;2.35;;;1.10;;
12852;SDS011;6495;51.808;7.478;2023-04-25T10:21:44;5.00;;;1.30;;
12852;SDS011;6495;51.808;7.478;2023-04-25T10:24:41;1.45;;;1.13;;
12852;SDS011;6495;51.808;7.478;2023-04-25T10:27:31;2.00;;;1.00;;
12852;SDS011;6495;51.808;7.478;2023-04-25T10:30:20;3.58;;;1.38;;
12852;SDS011;6495;51.808;7.478;2023-04-25T10:33:16;6.00;;;1.60;;
12852;SDS011;6495;51.808;7.478;2023-04-25T10:36:09;4.30;;;1.40;;
12852;SDS011;6495;51.808;7.478;2023-04-25T10:39:02;3.42;;;1.17;;
12852;SDS011;6495;51.808;7.478;2023-04-25T10:41:57;4.13;;;1.17;;
12852;SDS011;6495;51.808;7.478;2023-04-25T10:45:00;6.15;;;1.70;;
12852;SDS011;6495;51.808;7.478;2023-04-25T10:47:52;2.58;;;1.13;;
12852;SDS011;6495;51.808;7.478;2023-04-25T10:50:42;2.40;;;1.20;;
12852;SDS011;6495;51.808;7.478;2023-04-25T10:53:32;1.95;;;1.20;;
12852;SDS011;6495;51.808;7.478;2023-04-25T10:56:22;6.07;;;1.30;;
12852;SDS011;6495;51.808;7.478;2023-04-25T10:59:15;1.52;;;1.00;;
12852;SDS011;6495;51.808;7.478;2023-04-25T11:02:11;1.88;;;1.23;;
12852;SDS011;6495;51.808;7.478;2023-04-25T11:05:00;3.40;;;1.23;;
12852;SDS011;6495;51.808;7.478;2023-04-25T11:07:51;3.50;;;0.90;;
12852;SDS011;6495;51.808;7.478;2023-04-25T11:10:53;4.25;;;1.33;;
12852;SDS011;6495;51.808;7.478;2023-04-25T11:13:43;4.38;;;1.15;;
12852;SDS011;6495;51.808;7.478;2023-04-25T11:16:37;3.38;;;1.27;;
12852;SDS011;6495;51.808;7.478;2023-04-25T11:19:26;3.70;;;1.45;;
12852;SDS011;6495;51.808;7.478;2023-04-25T11:22:16;3.60;;;1.23;;
12852;SDS011;6495;51.808;7.478;2023-04-25T11:25:05;2.80;;;1.10;;
12852;SDS011;6495;51.808;7.478;2023-04-25T11:27:57;6.65;;;1.20;;
12852;SDS011;6495;51.808;7.478;2023-04-25T11:30:48;3.22;;;1.15;;
12852;SDS011;6495;51.808;7.478;2023-04-25T11:33:39;2.08;;;1.00;;
12852;SDS011;6495;51.808;7.478;2023-04-25T11:36:29;1.10;;;0.90;;
12852;SDS011;6495;51.808;7.478;2023-04-25T11:39:18;1.60;;;1.13;;
12852;SDS011;6495;51.808;7.478;2023-04-25T11:42:08;3.40;;;1.00;;
12852;SDS011;6495;51.808;7.478;2023-04-25T11:44:59;4.18;;;0.82;;
12852;SDS011;6495;51.808;7.478;2023-04-25T11:47:48;4.85;;;0.80;;
12852;SDS011;6495;51.808;7.478;2023-04-25T11:50:40;2.28;;;1.25;;
12852;SDS011;6495;51.808;7.478;2023-04-25T11:53:28;2.60;;;1.20;;
12852;SDS011;6495;51.808;7.478;2023-04-25T11:56:17;2.55;;;0.65;;
12852;SDS011;6495;51.808;7.478;2023-04-25T11:59:06;2.85;;;1.13;;
12852;SDS011;6495;51.808;7.478;2023-04-25T12:01:56;4.45;;;1.10;;
12852;SDS011;6495;51.808;7.478;2023-04-25T12:04:48;3.53;;;1.50;;
12852;SDS011;6495;51.808;7.478;2023-04-25T12:07:39;4.07;;;0.98;;
12852;SDS011;6495;51.808;7.478;2023-04-25T12:10:29;3.17;;;0.90;;
12852;SDS011;6495;51.808;7.478;2023-04-25T12:13:19;1.58;;;0.88;;
12852;SDS011;6495;51.808;7.478;2023-04-25T12:16:10;1.73;;;0.77;;
12852;SDS011;6495;51.808;7.478;2023-04-25T12:18:59;1.85;;;1.05;;
12852;SDS011;6495;51.808;7.478;2023-04-25T12:21:48;2.25;;;1.05;;
12852;SDS011;6495;51.808;7.478;2023-04-25T12:24:44;1.83;;;0.88;;
12852;SDS011;6495;51.808;7.478;2023-04-25T12:27:33;0.70;;;0.70;;
12852;SDS011;6495;51.808;7.478;2023-04-25T12:30:23;1.83;;;1.13;;
12852;SDS011;6495;51.808;7.478;2023-04-25T12:33:12;4.78;;;1.17;;
12852;SDS011;6495;51.808;7.478;2023-04-25T12:36:01;3.63;;;1.20;;
12852;SDS011;6495;51.808;7.478;2023-04-25T12:38:55;1.83;;;1.20;;
12852;SDS011;6495;51.808;7.478;2023-04-25T12:41:45;2.75;;;0.88;;
12852;SDS011;6495;51.808;7.478;2023-04-25T12:44:37;1.25;;;0.80;;
12852;SDS011;6495;51.808;7.478;2023-04-25T12:47:36;1.00;;;0.63;;
12852;SDS011;6495;51.808;7.478;2023-04-25T12:50:25;3.53;;;1.10;;
12852;SDS011;6495;51.808;7.478;2023-04-25T12:53:13;1.95;;;1.00;;
12852;SDS011;6495;51.808;7.478;2023-04-25T12:56:02;1.98;;;0.90;;
12852;SDS011;6495;51.808;7.478;2023-04-25T12:58:54;3.38;;;0.98;;
12852;SDS011;6495;51.808;7.478;2023-04-25T13:01:45;3.92;;;1.08;;
12852;SDS011;6495;51.808;7.478;2023-04-25T13:04:34;3.03;;;1.45;;
12852;SDS011;6495;51.808;7.478;2023-04-25T13:11:54;3.33;;;1.00;;
12852;SDS011;6495;51.808;7.478;2023-04-25T13:18:31;3.40;;;1.15;;
12852;SDS011;6495;51.808;7.478;2023-04-25T13:22:19;2.25;;;1.00;;
12852;SDS011;6495;51.808;7.478;2023-04-25T13:25:58;1.05;;;0.85;;
12852;SDS011;6495;51.808;7.478;2023-04-25T13:29:07;1.05;;;0.85;;
12852;SDS011;6495;51.808;7.478;2023-04-25T13:55:27;1.73;;;1.33;;
12852;SDS011;6495;51.808;7.478;2023-04-25T14:16:52;2.72;;;1.00;;
12852;SDS011;6495;51.808;7.478;2023-04-25T14:19:41;5.28;;;1.23;;
12852;SDS011;6495;51.808;7.478;2023-04-25T14:22:32;2.65;;;1.10;;
12852;SDS011;6495;51.808;7.478;2023-04-25T14:25:21;3.78;;;1.90;;
12852;SDS011;6495;51.808;7.478;2023-04-25T14:28:10;3.42;;;2.33;;
12852;SDS011;6495;51.808;7.478;2023-04-25T14:35:05;1.73;;;1.38;;
12852;SDS011;6495;51.808;7.478;2023-04-25T14:37:54;2.40;;;1.40;;
12852;SDS011;6495;51.808;7.478;2023-04-25T14:40:50;3.58;;;2.20;;
12852;SDS011;6495;51.808;7.478;2023-04-25T14:43:40;3.25;;;2.60;;
12852;SDS011;6495;51.808;7.478;2023-04-25T14:46:29;2.97;;;1.60;;
12852;SDS011;6495;51.808;7.478;2023-04-25T14:49:17;1.85;;;1.15;;
12852;SDS011;6495;51.808;7.478;2023-04-25T14:52:08;4.63;;;1.55;;
12852;SDS011;6495;51.808;7.478;2023-04-25T14:54:56;4.47;;;1.38;;
12852;SDS011;6495;51.808;7.478;2023-04-25T14:57:46;2.20;;;1.33;;
12852;SDS011;6495;51.808;7.478;2023-04-25T15:00:35;3.30;;;1.48;;
12852;SDS011;6495;51.808;7.478;2023-04-25T15:03:23;2.35;;;1.10;;
12852;SDS011;6495;51.808;7.478;2023-04-25T15:06:12;3.75;;;1.25;;
12852;SDS011;6495;51.808;7.478;2023-04-25T15:09:02;1.92;;;1.35;;
12852;SDS011;6495;51.808;7.478;2023-04-25T15:11:51;1.45;;;1.00;;
12852;SDS011;6495;51.808;7.478;2023-04-25T15:14:40;2.60;;;1.20;;
12852;SDS011;6495;51.808;7.478;2023-04-25T15:17:29;2.65;;;1.50;;
12852;SDS011;6495;51.808;7.478;2023-04-25T15:20:18;2.08;;;1.35;;
12852;SDS011;6495;51.808;7.478;2023-04-25T15:23:07;1.42;;;1.13;;
12852;SDS011;6495;51.808;7.478;2023-04-25T15:25:57;2.25;;;1.20;;
12852;SDS011;6495;51.808;7.478;2023-04-25T15:28:45;2.38;;;1.20;;
12852;SDS011;6495;51.808;7.478;2023-04-25T15:31:35;1.40;;;0.85;;
12852;SDS011;6495;51.808;7.478;2023-04-25T15:34:24;1.85;;;0.60;;
12852;SDS011;6495;51.808;7.478;2023-04-25T15:37:12;2.78;;;0.80;;
12852;SDS011;6495;51.808;7.478;2023-04-25T15:40:02;1.25;;;0.75;;
12852;SDS011;6495;51.808;7.478;2023-04-25T15:42:56;1.88;;;0.85;;
12852;SDS011;6495;51.808;7.478;2023-04-25T15:45:46;3.00;;;0.95;;
12852;SDS011;6495;51.808;7.478;2023-04-25T15:48:35;1.10;;;0.90;;
12852;SDS011;6495;51.808;7.478;2023-04-25T15:51:24;1.80;;;0.82;;
12852;SDS011;6495;51.808;7.478;2023-04-25T15:54:13;1.10;;;1.00;;
12852;SDS011;6495;51.808;7.478;2023-04-25T15:57:03;2.58;;;0.90;;
12852;SDS011;6495;51.808;7.478;2023-04-25T15:59:55;2.22;;;1.38;;
12852;SDS011;6495;51.808;7.478;2023-04-25T16:02:44;1.48;;;0.70;;
12852;SDS011;6495;51.808;7.478;2023-04-25T16:05:34;0.68;;;0.68;;
12852;SDS011;6495;51.808;7.478;2023-04-25T16:08:23;4.28;;;1.08;;
12852;SDS011;6495;51.808;7.478;2023-04-25T16:11:15;1.05;;;0.90;;
12852;SDS011;6495;51.808;7.478;2023-04-25T16:14:08;2.95;;;0.57;;
12852;SDS011;6495;51.808;7.478;2023-04-25T16:16:58;0.68;;;0.68;;
12852;SDS011;6495;51.808;7.478;2023-04-25T16:19:46;0.90;;;0.80;;
12852;SDS011;6495;51.808;7.478;2023-04-25T16:22:36;4.82;;;1.27;;
12852;SDS011;6495;51.808;7.478;2023-04-25T16:25:26;3.15;;;1.10;;
12852;SDS011;6495;51.808;7.478;2023-04-25T16:28:15;2.92;;;1.00;;
12852;SDS011;6495;51.808;7.478;2023-04-25T16:31:04;2.15;;;1.42;;
12852;SDS011;6495;51.808;7.478;2023-04-25T16:33:54;4.43;;;2.15;;
12852;SDS011;6495;51.808;7.478;2023-04-25T16:36:44;1.73;;;0.90;;
12852;SDS011;6495;51.808;7.478;2023-04-25T16:43:43;2.95;;;1.08;;
12852;SDS011;6495;51.808;7.478;2023-04-25T16:46:32;3.47;;;1.10;;
12852;SDS011;6495;51.808;7.478;2023-04-25T16:49:24;8.27;;;1.27;;
12852;SDS011;6495;51.808;7.478;2023-04-25T16:52:13;2.40;;;1.23;;
12852;SDS011;6495;51.808;7.478;2023-04-25T16:55:02;1.80;;;1.10;;
12852;SDS011;6495;51.808;7.478;2023-04-25T16:57:52;1.95;;;1.15;;
12852;SDS011;6495;51.808;7.478;2023-04-25T17:00:40;3.60;;;1.02;;
12852;SDS011;6495;51.808;7.478;2023-04-25T17:03:40;1.70;;;1.02;;
12852;SDS011;6495;51.808;7.478;2023-04-25T17:06:31;2.95;;;1.00;;
12852;SDS011;6495;51.808;7.478;2023-04-25T17:09:20;1.08;;;0.80;;
12852;SDS011;6495;51.808;7.478;2023-04-25T17:12:09;1.60;;;0.73;;
12852;SDS011;6495;51.808;7.478;2023-04-25T17:14:58;4.30;;;0.95;;
12852;SDS011;6495;51.808;7.478;2023-04-25T17:36:07;1.25;;;0.90;;
12852;SDS011;6495;51.808;7.478;2023-04-25T17:38:56;6.65;;;1.40;;
12852;SDS011;6495;51.808;7.478;2023-04-25T17:41:44;1.75;;;0.85;;
12852;SDS011;6495;51.808;7.478;2023-04-25T17:44:33;2.20;;;1.20;;
12852;SDS011;6495;51.808;7.478;2023-04-25T17:47:21;2.45;;;1.20;;
12852;SDS011;6495;51.808;7.478;2023-04-25T17:50:10;2.38;;;1.10;;
12852;SDS011;6495;51.808;7.478;2023-04-25T17:53:03;1.63;;;0.85;;
12852;SDS011;6495;51.808;7.478;2023-04-25T17:55:52;4.03;;;1.27;;
12852;SDS011;6495;51.808;7.478;2023-04-25T17:58:41;1.65;;;1.00;;
12852;SDS011;6495;51.808;7.478;2023-04-25T18:01:30;2.22;;;1.02;;
12852;SDS011;6495;51.808;7.478;2023-04-25T18:04:18;1.85;;;1.08;;
12852;SDS011;6495;51.808;7.478;2023-04-25T18:07:07;5.75;;;1.30;;
12852;SDS011;6495;51.808;7.478;2023-04-25T18:09:57;5.10;;;1.00;;
12852;SDS011;6495;51.808;7.478;2023-04-25T18:12:46;2.42;;;1.08;;
12852;SDS011;6495;51.808;7.478;2023-04-25T18:15:36;2.67;;;1.30;;
12852;SDS011;6495;51.808;7.478;2023-04-25T18:18:24;4.00;;;1.20;;
12852;SDS011;6495;51.808;7.478;2023-04-25T18:21:18;3.67;;;1.10;;
12852;SDS011;6495;51.808;7.478;2023-04-25T18:24:09;2.33;;;1.08;;
12852;SDS011;6495;51.808;7.478;2023-04-25T18:27:06;3.45;;;1.10;;
12852;SDS011;6495;51.808;7.478;2023-04-25T18:29:56;4.07;;;1.17;;
12852;SDS011;6495;51.808;7.478;2023-04-25T18:32:45;1.65;;;0.95;;
12852;SDS011;6495;51.808;7.478;2023-04-25T18:35:33;0.95;;;0.80;;
12852;SDS011;6495;51.808;7.478;2023-04-25T18:38:30;1.95;;;1.10;;
12852;SDS011;6495;51.808;7.478;2023-04-25T18:41:36;1.95;;;0.90;;
12852;SDS011;6495;51.808;7.478;2023-04-25T18:44:45;3.03;;;1.10;;
12852;SDS011;6495;51.808;7.478;2023-04-25T18:47:34;4.93;;;1.10;;
12852;SDS011;6495;51.808;7.478;2023-04-25T18:50:22;1.48;;;1.15;;
12852;SDS011;6495;51.808;7.478;2023-04-25T18:53:12;3.37;;;1.70;;